Time;durP1;ratioP1;P1;durP2;ratioP2;P2;SDS_P1;SDS_P2;PMS_P1;PMS_P2;Temp;Humidity;BMP_temperature;BMP_pressure;BME280_temperature;BME280_humidity;BME280_pressure;Samples;Min_cycle;Max_cycle;Signal;HPM_P1;HPM_P2
2023/01/26 00:01:45;;;;;;;73.07;33.92;;;4.20;99.90;;;;;;4989091;28;20572;-70
2023/01/26 00:04:13;;;;;;;70.70;35.17;;;4.20;99.90;;;;;;4956909;28;20164;-70
2023/01/26 00:06:41;;;;;;;60.92;30.65;;;4.20;99.90;;;;;;4988852;28;20184;-69
2023/01/26 00:09:13;;;;;;;64.55;33.05;;;4.20;99.90;;;;;;4940922;28;20289;-69
2023/01/26 00:11:42;;;;;;;70.15;34.50;;;4.20;99.90;;;;;;4974219;28;20704;-70
2023/01/26 00:14:10;;;;;;;69.10;32.67;;;4.20;99.90;;;;;;4972697;28;20285;-69
2023/01/26 00:16:37;;;;;;;66.75;33.13;;;4.20;99.90;;;;;;4973065;28;20241;-70
2023/01/26 00:19:03;;;;;;;70.28;33.17;;;4.20;99.90;;;;;;4988911;28;20174;-70
2023/01/26 00:21:32;;;;;;;70.05;33.60;;;4.20;99.90;;;;;;4956253;28;20228;-69
2023/01/26 00:23:59;;;;;;;67.90;33.38;;;4.20;99.90;;;;;;4972939;28;20195;-69
2023/01/26 00:26:29;;;;;;;67.15;33.53;;;4.20;99.90;;;;;;4972845;28;20701;-70
2023/01/26 00:29:04;;;;;;;70.32;33.33;;;4.20;99.90;;;;;;4975175;28;20226;-70
2023/01/26 00:31:30;;;;;;;68.82;34.00;;;4.20;99.90;;;;;;4976497;28;20182;-69
2023/01/26 00:33:58;;;;;;;68.30;32.10;;;4.20;99.90;;;;;;5002083;28;20561;-69
2023/01/26 00:36:27;;;;;;;64.03;30.98;;;4.20;99.90;;;;;;5012029;28;20199;-70
2023/01/26 00:38:55;;;;;;;68.60;32.50;;;4.20;99.90;;;;;;4995925;28;20194;-70
2023/01/26 00:44:12;;;;;;;70.38;34.35;;;4.20;99.90;;;;;;4995802;28;20248;-69
2023/01/26 00:46:39;;;;;;;70.40;33.30;;;4.20;99.90;;;;;;4995641;28;20178;-70
2023/01/26 00:49:06;;;;;;;63.80;31.52;;;4.20;99.90;;;;;;4996700;28;20206;-70
2023/01/26 00:51:32;;;;;;;71.22;31.77;;;4.20;99.90;;;;;;4979703;28;20652;-70
2023/01/26 00:54:00;;;;;;;74.17;34.70;;;4.20;99.90;;;;;;5011877;28;20252;-71
2023/01/26 00:56:26;;;;;;;67.07;32.25;;;4.20;99.90;;;;;;4995356;28;20445;-68
2023/01/26 00:58:52;;;;;;;69.85;33.00;;;4.20;99.90;;;;;;4995564;28;20225;-69
2023/01/26 01:01:18;;;;;;;65.40;32.73;;;4.20;99.90;;;;;;4996606;28;20617;-71
2023/01/26 01:03:51;;;;;;;65.40;31.13;;;4.20;99.90;;;;;;5011491;28;20777;-70
2023/01/26 01:06:17;;;;;;;64.95;31.55;;;4.20;99.90;;;;;;5011561;28;20781;-70
2023/01/26 01:08:45;;;;;;;62.53;31.27;;;4.20;99.90;;;;;;4996130;28;20281;-69
2023/01/26 01:11:13;;;;;;;66.97;32.05;;;4.20;99.90;;;;;;4996225;28;20166;-70
2023/01/26 01:13:39;;;;;;;65.37;31.27;;;4.20;99.90;;;;;;4996159;28;20217;-70
2023/01/26 01:16:07;;;;;;;65.60;31.55;;;4.20;99.90;;;;;;5011621;28;20828;-70
2023/01/26 01:18:36;;;;;;;65.05;29.35;;;4.20;99.90;;;;;;4995232;28;20171;-70
2023/01/26 01:21:24;;;;;;;60.83;29.17;;;4.20;99.90;;;;;;4979012;28;20182;-70
2023/01/26 01:23:52;;;;;;;61.88;30.42;;;4.20;99.90;;;;;;4996046;28;20173;-68
2023/01/26 01:26:21;;;;;;;65.97;30.93;;;4.10;99.90;;;;;;4978708;28;20210;-71
2023/01/26 01:28:54;;;;;;;58.95;30.00;;;4.10;99.90;;;;;;4995204;28;20894;-70
2023/01/26 01:31:24;;;;;;;64.90;32.03;;;4.20;99.90;;;;;;4995927;28;20588;-68
2023/01/26 01:33:54;;;;;;;62.53;29.50;;;4.10;99.90;;;;;;5010724;28;20205;-68
2023/01/26 01:36:21;;;;;;;61.67;30.98;;;4.10;99.90;;;;;;4993770;28;20256;-68
2023/01/26 01:38:50;;;;;;;59.60;29.77;;;4.10;99.90;;;;;;4979047;28;20170;-68
2023/01/26 01:41:21;;;;;;;63.13;31.90;;;4.10;99.90;;;;;;4993955;28;20182;-68
2023/01/26 01:43:50;;;;;;;60.58;28.83;;;4.10;99.90;;;;;;5010620;28;20620;-68
2023/01/26 01:46:32;;;;;;;61.42;30.00;;;4.10;99.90;;;;;;4994624;28;20277;-68
2023/01/26 01:49:04;;;;;;;59.58;28.50;;;4.10;99.90;;;;;;4994452;28;20210;-68
2023/01/26 01:51:37;;;;;;;59.80;30.55;;;4.10;99.90;;;;;;4994475;28;20190;-68
2023/01/26 01:54:14;;;;;;;59.42;28.77;;;4.10;99.90;;;;;;5010679;28;20191;-68
2023/01/26 01:56:44;;;;;;;64.95;31.13;;;4.10;99.90;;;;;;4995307;28;20589;-68
2023/01/26 01:59:11;;;;;;;60.08;29.45;;;4.10;99.90;;;;;;5010537;28;20159;-68
2023/01/26 02:01:37;;;;;;;59.35;30.17;;;4.10;99.90;;;;;;4994540;28;20253;-68
2023/01/26 02:04:08;;;;;;;61.60;28.10;;;4.10;99.90;;;;;;4978085;28;20617;-68
2023/01/26 02:06:51;;;;;;;58.47;28.02;;;4.10;99.90;;;;;;4994232;28;20201;-68
2023/01/26 02:12:11;;;;;;;56.45;27.40;;;4.10;99.90;;;;;;5010249;28;20166;-68
2023/01/26 02:14:38;;;;;;;58.40;27.48;;;4.10;99.90;;;;;;5010214;28;20198;-68
2023/01/26 02:17:07;;;;;;;57.83;27.08;;;4.10;99.90;;;;;;4994284;28;20301;-68
2023/01/26 02:19:58;;;;;;;56.92;28.17;;;4.10;99.90;;;;;;5010174;28;20186;-68
2023/01/26 02:22:56;;;;;;;56.83;27.02;;;4.10;99.90;;;;;;4994060;28;20217;-68
2023/01/26 02:25:41;;;;;;;62.85;30.70;;;4.10;99.90;;;;;;4977439;28;20208;-68
2023/01/26 02:28:08;;;;;;;55.22;26.77;;;4.10;99.90;;;;;;5009854;28;20220;-68
2023/01/26 02:30:34;;;;;;;55.08;27.58;;;4.10;99.90;;;;;;4967489;28;20171;-68
2023/01/26 02:33:02;;;;;;;56.42;28.48;;;4.10;99.90;;;;;;4958087;28;20210;-68
2023/01/26 02:35:31;;;;;;;54.53;26.42;;;4.10;99.90;;;;;;4957977;28;20203;-68
2023/01/26 02:38:00;;;;;;;60.70;27.30;;;4.10;99.90;;;;;;4974221;28;20171;-68
2023/01/26 02:40:46;;;;;;;54.47;25.73;;;4.10;99.90;;;;;;4990349;28;20716;-68
2023/01/26 02:43:17;;;;;;;53.70;25.58;;;4.10;99.90;;;;;;4958440;28;20294;-69
2023/01/26 02:45:43;;;;;;;54.73;27.27;;;4.10;99.90;;;;;;4941914;28;20313;-68
2023/01/26 02:48:09;;;;;;;57.20;28.13;;;4.10;99.90;;;;;;4957904;28;20982;-68
2023/01/26 02:50:35;;;;;;;57.77;26.27;;;4.10;99.90;;;;;;4973991;28;20175;-68
2023/01/26 02:53:02;;;;;;;61.60;27.50;;;4.10;99.90;;;;;;4989863;28;20819;-68
2023/01/26 02:55:29;;;;;;;61.70;26.73;;;4.10;99.90;;;;;;4989863;28;20256;-68
2023/01/26 02:57:58;;;;;;;62.70;30.02;;;4.10;99.90;;;;;;4974978;28;20624;-68
2023/01/26 03:00:36;;;;;;;64.97;29.08;;;4.10;99.90;;;;;;4989994;28;20280;-68
2023/01/26 03:08:56;;;;;;;56.88;27.00;;;4.10;99.90;;;;;;5667483;23;20348;-75
2023/01/26 03:11:40;;;;;;;49.70;26.08;;;4.10;99.90;;;;;;4874965;29;20217;-75
2023/01/26 03:14:11;;;;;;;57.28;28.02;;;4.00;99.90;;;;;;4844835;29;20687;-76
2023/01/26 03:16:39;;;;;;;60.63;27.98;;;4.00;99.90;;;;;;4841871;29;20210;-76
2023/01/26 03:27:28;;;;;;;53.40;25.75;;;4.00;99.90;;;;;;4845749;29;20198;-76
2023/01/26 03:30:00;;;;;;;56.65;26.13;;;4.10;99.90;;;;;;4859651;29;20188;-76
2023/01/26 03:32:28;;;;;;;57.25;25.42;;;4.10;99.90;;;;;;4861305;29;20223;-76
2023/01/26 03:34:58;;;;;;;53.30;25.88;;;4.00;99.90;;;;;;4861159;29;20203;-76
2023/01/26 03:37:24;;;;;;;52.60;24.17;;;4.10;99.90;;;;;;4831091;29;20179;-76
2023/01/26 03:56:46;;;;;;;58.22;27.08;;;4.00;99.90;;;;;;4842456;29;20211;-76
2023/01/26 03:59:16;;;;;;;52.50;25.52;;;4.00;99.90;;;;;;4827335;29;20680;-76
2023/01/26 04:10:10;;;;;;;55.17;24.70;;;4.00;99.90;;;;;;4882424;29;20542;-76
2023/01/26 04:12:36;;;;;;;51.05;24.55;;;4.00;99.90;;;;;;4862674;29;20224;-76
2023/01/26 04:23:42;;;;;;;57.10;26.25;;;4.00;99.90;;;;;;4866555;29;20198;-76
2023/01/26 04:26:08;;;;;;;51.40;24.92;;;4.00;99.90;;;;;;4881156;29;20210;-76
2023/01/26 04:28:35;;;;;;;53.17;25.67;;;4.00;99.90;;;;;;4881847;29;20254;-76
2023/01/26 04:31:03;;;;;;;54.53;24.13;;;4.00;99.90;;;;;;4865713;29;20190;-76
2023/01/26 04:33:34;;;;;;;48.38;24.33;;;3.90;99.90;;;;;;4881816;29;20214;-76
2023/01/26 04:36:08;;;;;;;48.90;23.90;;;3.90;99.90;;;;;;4880829;29;20207;-76
2023/01/26 04:38:39;;;;;;;50.17;24.77;;;4.00;99.90;;;;;;4866316;29;20677;-76
2023/01/26 04:41:05;;;;;;;49.60;25.25;;;4.00;99.90;;;;;;4866067;29;20673;-76
2023/01/26 04:43:40;;;;;;;50.88;24.98;;;3.90;99.90;;;;;;4866169;29;20284;-76
2023/01/26 04:46:12;;;;;;;54.10;25.00;;;3.90;99.90;;;;;;4880921;29;20207;-76
2023/01/26 04:48:39;;;;;;;50.83;24.25;;;4.00;99.90;;;;;;4881367;29;20556;-76
2023/01/26 04:51:11;;;;;;;43.45;22.65;;;3.90;99.90;;;;;;4865997;29;20214;-76
2023/01/26 04:53:37;;;;;;;49.47;23.45;;;4.00;99.90;;;;;;4866153;29;20730;-76
2023/01/26 04:56:04;;;;;;;47.20;23.67;;;3.90;99.90;;;;;;4881011;29;20245;-76
2023/01/26 04:58:31;;;;;;;52.92;26.65;;;4.00;99.90;;;;;;4868918;29;20441;-76
2023/01/26 05:00:58;;;;;;;52.35;24.90;;;3.90;99.90;;;;;;4875116;29;20198;-76
2023/01/26 05:03:27;;;;;;;52.13;24.52;;;3.90;99.90;;;;;;4881096;29;20586;-76
2023/01/26 05:05:54;;;;;;;48.33;24.60;;;3.90;99.90;;;;;;4881103;29;20839;-76
2023/01/26 05:08:23;;;;;;;51.33;23.35;;;3.90;99.90;;;;;;4866237;29;20216;-76
2023/01/26 05:10:50;;;;;;;51.45;23.98;;;3.90;99.90;;;;;;4880992;29;20171;-76
2023/01/26 05:13:37;;;;;;;51.17;23.55;;;3.90;99.90;;;;;;4879697;29;20759;-76
2023/01/26 05:16:24;;;;;;;50.17;23.90;;;3.90;99.90;;;;;;4863143;29;20277;-76
2023/01/26 05:19:08;;;;;;;47.47;22.48;;;3.90;99.90;;;;;;4879241;29;20213;-75
2023/01/26 05:21:41;;;;;;;50.92;25.30;;;3.90;99.90;;;;;;4879331;29;20557;-75
2023/01/26 05:24:10;;;;;;;48.28;22.05;;;3.90;99.90;;;;;;4878810;29;20269;-75
2023/01/26 05:27:19;;;;;;;52.22;24.02;;;3.90;99.90;;;;;;4870063;29;20194;-75
2023/01/26 05:29:46;;;;;;;46.60;22.27;;;3.90;99.90;;;;;;4897651;29;20180;-74
2023/01/26 05:32:12;;;;;;;44.15;21.33;;;3.90;99.90;;;;;;4878682;29;20170;-75
2023/01/26 05:34:40;;;;;;;43.90;23.15;;;3.90;99.90;;;;;;4863581;29;20210;-75
2023/01/26 05:37:06;;;;;;;47.35;24.45;;;3.90;99.90;;;;;;4894527;29;20663;-77
2023/01/26 05:39:34;;;;;;;45.95;22.45;;;3.90;99.90;;;;;;4882461;29;20194;-75
2023/01/26 05:42:12;;;;;;;44.38;21.60;;;3.90;99.90;;;;;;4883232;29;20610;-75
2023/01/26 05:44:58;;;;;;;47.67;21.95;;;3.90;99.90;;;;;;4898656;29;20206;-75
2023/01/26 05:47:24;;;;;;;48.57;23.93;;;3.90;99.90;;;;;;4897212;29;20597;-75
2023/01/26 05:49:53;;;;;;;49.45;24.38;;;3.90;99.90;;;;;;4881890;29;20878;-75
2023/01/26 05:52:26;;;;;;;51.80;24.02;;;3.90;99.90;;;;;;4882824;29;20209;-75
2023/01/26 05:54:52;;;;;;;44.33;22.80;;;3.90;99.90;;;;;;4890799;29;20195;-75
2023/01/26 05:57:23;;;;;;;49.83;23.25;;;3.90;99.90;;;;;;4878492;29;20792;-75
2023/01/26 05:59:56;;;;;;;47.20;22.55;;;3.90;99.90;;;;;;4880118;29;20190;-75
2023/01/26 06:02:22;;;;;;;53.77;24.50;;;3.90;99.90;;;;;;4866392;29;20205;-75
2023/01/26 06:04:48;;;;;;;52.60;24.33;;;3.90;99.90;;;;;;4866246;29;20490;-75
2023/01/26 06:07:15;;;;;;;45.53;22.90;;;3.90;99.90;;;;;;4897459;29;20656;-75
2023/01/26 06:09:49;;;;;;;48.97;23.60;;;3.90;99.90;;;;;;4881491;29;20178;-75
2023/01/26 06:12:22;;;;;;;46.03;24.23;;;3.90;99.90;;;;;;4881278;29;20706;-75
2023/01/26 06:14:54;;;;;;;50.97;22.65;;;3.90;99.90;;;;;;4898205;29;20671;-75
2023/01/26 06:17:20;;;;;;;50.17;24.15;;;3.90;99.90;;;;;;4881423;29;20217;-75
2023/01/26 06:19:50;;;;;;;46.58;22.85;;;3.90;99.90;;;;;;4896815;29;20184;-75
2023/01/26 06:22:21;;;;;;;49.22;22.50;;;3.90;99.90;;;;;;4881470;29;20182;-74
2023/01/26 06:24:49;;;;;;;46.15;24.30;;;3.80;99.90;;;;;;4874980;29;20207;-75
2023/01/26 06:27:17;;;;;;;46.35;23.75;;;3.90;99.90;;;;;;4877977;29;20183;-75
2023/01/26 06:29:46;;;;;;;46.03;22.92;;;3.90;99.90;;;;;;4863198;29;20216;-75
2023/01/26 06:32:13;;;;;;;51.50;23.52;;;3.90;99.90;;;;;;4877837;29;20301;-74
2023/01/26 06:34:41;;;;;;;44.85;21.70;;;3.90;99.90;;;;;;4877597;29;20199;-74
2023/01/26 06:37:07;;;;;;;47.45;22.55;;;3.90;99.90;;;;;;4862338;29;20540;-75
2023/01/26 06:39:37;;;;;;;42.50;22.10;;;3.90;99.90;;;;;;4862851;29;20167;-75
2023/01/26 06:42:03;;;;;;;44.78;22.25;;;3.90;99.90;;;;;;4847205;29;20186;-75
2023/01/26 06:44:29;;;;;;;46.92;22.63;;;3.90;99.90;;;;;;4877642;29;20277;-75
2023/01/26 06:46:56;;;;;;;44.97;22.33;;;3.90;99.90;;;;;;4877792;29;20537;-75
2023/01/26 06:49:25;;;;;;;46.55;23.27;;;3.90;99.90;;;;;;4877583;29;20214;-74
2023/01/26 06:51:56;;;;;;;41.85;22.27;;;3.90;99.90;;;;;;4862340;29;20671;-73
2023/01/26 06:54:32;;;;;;;39.45;21.30;;;3.90;99.90;;;;;;4863709;29;20210;-74
2023/01/26 06:57:17;;;;;;;42.05;22.10;;;3.90;99.90;;;;;;4879515;29;20242;-75
2023/01/26 06:59:56;;;;;;;39.50;20.35;;;3.90;99.90;;;;;;4877669;29;20241;-74
2023/01/26 07:02:43;;;;;;;44.50;21.73;;;3.90;99.90;;;;;;4860399;29;20684;-74
2023/01/26 07:05:15;;;;;;;40.42;20.52;;;3.90;99.90;;;;;;4859096;29;20238;-74
2023/01/26 07:07:44;;;;;;;41.90;20.80;;;3.90;99.90;;;;;;4891574;29;20205;-74
2023/01/26 07:10:10;;;;;;;41.20;19.15;;;3.90;99.90;;;;;;4895497;29;20197;-74
2023/01/26 07:12:40;;;;;;;42.72;20.85;;;3.90;99.90;;;;;;4865729;29;20292;-74
2023/01/26 07:15:06;;;;;;;38.47;20.83;;;3.90;99.90;;;;;;4880571;29;20555;-74
2023/01/26 07:17:34;;;;;;;35.47;19.35;;;3.90;99.90;;;;;;4880603;29;20181;-74
2023/01/26 07:20:00;;;;;;;39.08;20.33;;;3.80;99.90;;;;;;4880182;29;20253;-74
2023/01/26 07:22:26;;;;;;;38.80;19.35;;;3.90;99.90;;;;;;4896943;29;20172;-74
2023/01/26 07:24:52;;;;;;;36.63;19.10;;;3.90;99.90;;;;;;4872577;29;20640;-74
2023/01/26 07:27:18;;;;;;;40.93;19.87;;;3.90;99.90;;;;;;4878094;29;20820;-75
2023/01/26 07:29:45;;;;;;;39.83;19.93;;;3.90;99.90;;;;;;4861143;29;20443;-74
2023/01/26 07:32:11;;;;;;;40.05;18.90;;;3.80;99.90;;;;;;4877012;29;20426;-75
2023/01/26 07:34:37;;;;;;;42.30;19.73;;;3.90;99.90;;;;;;4861487;29;20206;-75
2023/01/26 07:37:04;;;;;;;39.17;20.67;;;3.90;99.90;;;;;;4876871;29;20203;-75
2023/01/26 07:39:30;;;;;;;39.63;21.27;;;3.80;99.90;;;;;;4876549;29;20753;-74
2023/01/26 07:41:56;;;;;;;32.58;18.27;;;3.80;99.90;;;;;;4878205;29;20178;-74
2023/01/26 07:44:40;;;;;;;38.95;18.13;;;3.80;99.90;;;;;;4876951;29;20277;-74
2023/01/26 07:47:06;;;;;;;36.53;19.08;;;3.90;99.90;;;;;;4877804;29;20397;-74
2023/01/26 07:49:32;;;;;;;36.27;17.43;;;3.80;99.90;;;;;;4877921;29;20644;-75
2023/01/26 07:51:58;;;;;;;40.40;19.38;;;3.80;99.90;;;;;;4846007;29;20431;-74
2023/01/26 07:54:24;;;;;;;33.37;18.60;;;3.90;99.90;;;;;;4861037;29;20699;-74
2023/01/26 07:56:51;;;;;;;37.42;18.77;;;3.90;99.90;;;;;;4876213;29;20442;-74
2023/01/26 07:59:17;;;;;;;35.22;18.50;;;3.80;99.90;;;;;;4877352;29;20171;-76
2023/01/26 08:01:43;;;;;;;35.57;18.90;;;3.90;99.90;;;;;;4876919;29;20323;-74
2023/01/26 08:04:10;;;;;;;37.53;19.80;;;3.90;99.90;;;;;;4876673;29;20478;-74
2023/01/26 08:06:39;;;;;;;37.92;18.85;;;3.80;99.90;;;;;;4876861;29;20427;-74
2023/01/26 08:09:05;;;;;;;36.35;18.52;;;3.90;99.90;;;;;;4877714;29;20279;-75
2023/01/26 08:11:33;;;;;;;34.00;16.88;;;3.90;99.90;;;;;;4876532;29;20230;-76
2023/01/26 08:13:59;;;;;;;34.53;17.25;;;3.90;99.90;;;;;;4861178;29;20206;-76
2023/01/26 08:16:25;;;;;;;34.72;16.17;;;3.80;99.90;;;;;;4878846;29;20203;-76
2023/01/26 08:18:53;;;;;;;35.08;18.38;;;3.80;99.90;;;;;;4877979;29;20478;-76
2023/01/26 08:21:20;;;;;;;36.03;17.27;;;3.90;99.90;;;;;;4876819;29;20463;-76
2023/01/26 08:23:50;;;;;;;42.08;19.30;;;3.90;99.90;;;;;;4883440;29;20437;-76
2023/01/26 08:26:19;;;;;;;29.63;17.00;;;3.90;99.90;;;;;;4876571;29;20229;-76
2023/01/26 08:28:46;;;;;;;35.13;17.45;;;3.90;99.90;;;;;;4876788;29;20244;-76
2023/01/26 08:31:17;;;;;;;31.45;16.58;;;3.90;99.90;;;;;;4875872;29;20206;-76
2023/01/26 08:33:44;;;;;;;38.88;18.83;;;3.90;99.90;;;;;;4860881;29;20296;-76
2023/01/26 08:36:12;;;;;;;38.25;18.90;;;3.90;99.90;;;;;;4876663;29;20622;-76
2023/01/26 08:38:41;;;;;;;32.20;17.08;;;3.90;99.90;;;;;;4860522;29;20191;-76
2023/01/26 08:41:08;;;;;;;33.38;18.35;;;3.90;99.90;;;;;;4876133;29;20206;-76
2023/01/26 08:43:34;;;;;;;31.88;16.52;;;3.90;99.90;;;;;;4876509;29;20227;-76
2023/01/26 08:46:00;;;;;;;33.75;18.83;;;3.90;99.90;;;;;;4860985;29;20266;-76
2023/01/26 08:48:30;;;;;;;36.78;18.70;;;3.90;99.90;;;;;;4876369;29;20170;-76
2023/01/26 08:50:58;;;;;;;41.25;19.75;;;3.90;99.90;;;;;;4879508;29;20179;-76
2023/01/26 08:53:30;;;;;;;34.90;16.23;;;3.90;99.90;;;;;;4879646;29;20598;-76
2023/01/26 08:55:56;;;;;;;37.00;17.65;;;3.90;99.90;;;;;;4877154;29;20710;-76
2023/01/26 08:58:22;;;;;;;39.47;19.10;;;3.90;99.90;;;;;;4882820;29;20182;-76
2023/01/26 09:00:48;;;;;;;34.75;20.25;;;3.90;99.90;;;;;;4890261;29;20532;-76
2023/01/26 09:03:14;;;;;;;32.08;17.00;;;3.90;99.90;;;;;;4879524;29;20544;-76
2023/01/26 09:05:40;;;;;;;33.80;16.90;;;3.90;99.90;;;;;;4863988;29;20695;-76
2023/01/26 09:08:08;;;;;;;29.15;17.10;;;3.90;99.90;;;;;;4863191;29;20572;-76
2023/01/26 09:10:39;;;;;;;35.00;17.63;;;3.90;99.90;;;;;;4880157;29;20672;-76
2023/01/26 09:13:08;;;;;;;36.85;18.90;;;3.90;99.90;;;;;;4879092;29;20220;-76
2023/01/26 09:15:37;;;;;;;37.55;19.17;;;3.90;99.90;;;;;;4879129;29;20233;-76
2023/01/26 09:18:04;;;;;;;33.90;17.67;;;3.90;99.90;;;;;;4879414;29;20214;-76
2023/01/26 09:20:32;;;;;;;30.27;17.05;;;3.90;99.90;;;;;;4896729;29;20405;-76
2023/01/26 09:23:00;;;;;;;31.67;16.20;;;3.90;99.90;;;;;;4897808;29;20277;-76
2023/01/26 09:25:26;;;;;;;36.67;17.05;;;3.90;99.90;;;;;;4875826;29;20218;-76
2023/01/26 09:27:52;;;;;;;33.73;17.00;;;3.90;99.90;;;;;;4863399;29;20202;-76
2023/01/26 09:30:18;;;;;;;35.75;18.23;;;3.90;99.90;;;;;;4878486;29;20479;-76
2023/01/26 09:32:44;;;;;;;32.87;16.33;;;3.90;99.90;;;;;;4863701;29;20199;-76
2023/01/26 09:35:10;;;;;;;31.30;16.17;;;4.00;99.90;;;;;;4879013;29;20611;-76
2023/01/26 09:37:37;;;;;;;35.42;18.27;;;3.90;99.90;;;;;;4878939;29;20628;-76
2023/01/26 09:40:05;;;;;;;35.17;16.77;;;3.90;99.90;;;;;;4863257;29;20248;-76
2023/01/26 09:42:46;;;;;;;37.72;18.27;;;4.00;99.90;;;;;;4879341;29;20235;-76
2023/01/26 09:45:23;;;;;;;32.50;16.45;;;3.90;99.90;;;;;;4878789;29;20221;-76
2023/01/26 09:47:55;;;;;;;36.75;18.92;;;3.90;99.90;;;;;;4878910;29;20201;-76
2023/01/26 09:50:32;;;;;;;35.28;17.00;;;3.90;99.90;;;;;;4878629;29;20189;-76
2023/01/26 09:53:17;;;;;;;33.75;17.77;;;3.90;99.90;;;;;;4879582;29;20197;-76
2023/01/26 09:55:47;;;;;;;32.10;16.40;;;3.90;99.90;;;;;;4878508;29;20273;-76
2023/01/26 09:58:24;;;;;;;33.65;17.73;;;3.90;99.90;;;;;;4878407;29;20245;-76
2023/01/26 10:00:59;;;;;;;37.80;17.70;;;3.90;99.90;;;;;;4877363;29;20202;-76
2023/01/26 10:03:45;;;;;;;33.83;17.80;;;3.90;99.90;;;;;;4862633;29;20241;-76
2023/01/26 10:06:30;;;;;;;40.08;18.17;;;3.90;99.90;;;;;;4863128;29;20213;-76
2023/01/26 10:09:28;;;;;;;32.88;18.75;;;3.90;99.90;;;;;;4878127;29;20193;-76
2023/01/26 10:12:00;;;;;;;38.00;18.02;;;3.90;99.90;;;;;;4878178;29;20356;-76
2023/01/26 10:14:51;;;;;;;35.33;18.35;;;3.90;99.90;;;;;;4878147;29;20222;-76
2023/01/26 10:17:41;;;;;;;35.50;17.33;;;3.90;99.90;;;;;;4835399;29;20191;-76
2023/01/26 10:20:37;;;;;;;37.22;18.25;;;3.90;99.90;;;;;;4862405;29;20638;-76
2023/01/26 10:23:18;;;;;;;35.83;18.95;;;3.90;99.90;;;;;;4861136;29;20693;-76
2023/01/26 10:25:47;;;;;;;36.33;18.27;;;3.90;99.90;;;;;;4844751;29;20219;-76
2023/01/26 10:28:16;;;;;;;37.10;17.80;;;3.90;99.90;;;;;;4870267;29;20555;-76
2023/01/26 10:30:45;;;;;;;33.88;17.65;;;3.90;99.90;;;;;;4852351;29;20198;-76
2023/01/26 10:33:34;;;;;;;31.95;17.38;;;3.90;99.90;;;;;;4896392;29;20281;-76
2023/01/26 10:36:02;;;;;;;31.25;15.82;;;3.90;99.90;;;;;;4896228;29;20217;-77
2023/01/26 10:38:36;;;;;;;32.15;15.75;;;3.90;99.90;;;;;;4896316;29;20237;-77
2023/01/26 10:41:25;;;;;;;28.70;14.68;;;3.90;99.90;;;;;;4896346;29;20190;-76
2023/01/26 10:43:55;;;;;;;34.05;17.70;;;3.90;99.90;;;;;;4880608;29;20604;-76
2023/01/26 10:46:41;;;;;;;33.97;16.02;;;3.90;99.90;;;;;;4897585;29;20282;-76
2023/01/26 10:49:10;;;;;;;32.97;16.80;;;3.90;99.90;;;;;;4883866;29;20194;-75
2023/01/26 10:51:41;;;;;;;27.65;16.35;;;4.00;99.90;;;;;;4862433;29;20285;-75
2023/01/26 10:54:27;;;;;;;35.78;17.45;;;3.90;99.90;;;;;;4878775;29;20249;-75
2023/01/26 10:57:01;;;;;;;32.28;15.82;;;3.90;99.90;;;;;;4843820;29;20170;-75
2023/01/26 10:59:31;;;;;;;30.92;15.55;;;3.90;99.90;;;;;;4858752;29;20653;-76
2023/01/26 11:02:17;;;;;;;26.45;15.73;;;3.90;99.90;;;;;;4859287;29;20215;-75
2023/01/26 11:05:13;;;;;;;28.60;15.88;;;3.90;99.90;;;;;;4859180;29;20195;-75
2023/01/26 11:07:41;;;;;;;29.05;14.35;;;3.90;99.90;;;;;;4864620;29;20186;-76
2023/01/26 11:10:33;;;;;;;28.40;15.05;;;3.90;99.90;;;;;;4883707;29;20712;-80
2023/01/26 11:13:25;;;;;;;31.75;15.60;;;3.90;99.90;;;;;;4876696;29;20222;-77
2023/01/26 11:16:15;;;;;;;27.67;14.30;;;4.00;99.90;;;;;;4876452;29;20263;-75
2023/01/26 11:19:02;;;;;;;24.55;13.48;;;3.90;99.90;;;;;;4878512;29;20189;-76
2023/01/26 11:34:35;;;;;;;24.92;13.57;;;3.90;99.90;;;;;;4876377;29;20692;-74
2023/01/26 11:37:39;;;;;;;22.85;12.30;;;3.90;99.90;;;;;;4876583;29;20194;-74
2023/01/26 11:40:33;;;;;;;23.80;14.80;;;3.90;99.90;;;;;;4861444;29;20166;-74
2023/01/26 11:43:07;;;;;;;21.58;11.73;;;3.90;99.90;;;;;;4878038;29;20178;-74
2023/01/26 11:45:46;;;;;;;23.65;12.85;;;3.90;99.90;;;;;;4878346;29;20221;-76
2023/01/26 11:48:50;;;;;;;22.35;12.40;;;3.90;99.90;;;;;;4857296;29;20197;-76
2023/01/26 11:51:27;;;;;;;22.90;12.18;;;3.90;99.90;;;;;;4875018;29;20167;-73
2023/01/26 11:54:15;;;;;;;26.35;12.32;;;3.90;99.90;;;;;;4843990;29;20217;-74
2023/01/26 11:56:56;;;;;;;24.42;12.00;;;3.90;99.90;;;;;;4860759;29;20625;-73
2023/01/26 11:59:31;;;;;;;23.80;12.60;;;3.90;99.90;;;;;;4829691;29;20592;-73
2023/01/26 12:02:16;;;;;;;23.52;13.40;;;3.90;99.90;;;;;;4859843;29;20286;-71
2023/01/26 12:04:46;;;;;;;23.10;11.80;;;3.90;99.90;;;;;;4860548;29;20195;-73
2023/01/26 12:07:29;;;;;;;21.35;13.23;;;4.00;99.90;;;;;;4859191;29;20172;-73
2023/01/26 12:10:03;;;;;;;21.27;11.05;;;4.00;99.90;;;;;;4892879;29;20269;-73
2023/01/26 12:12:47;;;;;;;18.55;11.05;;;4.00;99.90;;;;;;4880600;29;20752;-73
2023/01/26 12:15:23;;;;;;;19.27;11.25;;;4.00;99.90;;;;;;4880562;29;20565;-73
2023/01/26 12:17:55;;;;;;;21.08;11.70;;;4.00;99.90;;;;;;4897233;29;20197;-72
2023/01/26 12:20:44;;;;;;;18.42;11.55;;;4.00;99.90;;;;;;4895965;29;20599;-72
2023/01/26 12:23:25;;;;;;;24.02;13.15;;;4.00;99.90;;;;;;4897262;29;20173;-72
2023/01/26 12:25:59;;;;;;;20.63;10.57;;;4.00;99.90;;;;;;4895657;29;20684;-72
2023/01/26 12:28:37;;;;;;;20.77;11.68;;;4.00;99.90;;;;;;4865497;29;20173;-72
2023/01/26 12:31:17;;;;;;;18.50;10.35;;;4.00;99.90;;;;;;4880839;29;20313;-70
2023/01/26 12:33:44;;;;;;;19.95;10.40;;;4.00;99.90;;;;;;4880628;29;20249;-70
2023/01/26 12:36:25;;;;;;;18.77;11.25;;;4.00;99.90;;;;;;4881748;29;20206;-70
2023/01/26 12:39:25;;;;;;;22.25;11.98;;;4.00;99.90;;;;;;4880705;29;20700;-70
2023/01/26 12:42:13;;;;;;;18.42;10.55;;;4.00;99.90;;;;;;4880701;29;20237;-70
2023/01/26 12:44:58;;;;;;;18.15;10.63;;;4.00;99.90;;;;;;4881622;29;20201;-70
2023/01/26 12:47:48;;;;;;;19.65;10.70;;;4.00;99.90;;;;;;4878618;29;20186;-69
2023/01/26 12:50:23;;;;;;;20.98;11.60;;;4.00;99.90;;;;;;4865206;29;20187;-69
2023/01/26 12:53:05;;;;;;;20.13;12.02;;;4.00;99.90;;;;;;4865017;29;20216;-69
2023/01/26 12:55:46;;;;;;;19.55;11.23;;;4.00;99.90;;;;;;4880355;29;20268;-69
2023/01/26 12:58:35;;;;;;;20.30;11.70;;;4.00;99.90;;;;;;4895851;29;20166;-69
2023/01/26 13:01:09;;;;;;;19.25;10.98;;;4.00;99.90;;;;;;4881445;29;20205;-69
2023/01/26 13:03:42;;;;;;;20.75;11.65;;;4.10;99.90;;;;;;4864982;29;20210;-69
2023/01/26 13:06:08;;;;;;;22.15;11.93;;;4.10;99.90;;;;;;4880297;29;20255;-69
2023/01/26 13:08:34;;;;;;;21.35;10.65;;;4.00;99.90;;;;;;4880193;29;20653;-69
2023/01/26 13:11:05;;;;;;;17.97;10.57;;;4.10;99.90;;;;;;4880185;29;20179;-69
2023/01/26 13:13:34;;;;;;;22.02;12.32;;;4.10;99.90;;;;;;4864575;29;20477;-69
2023/01/26 13:16:29;;;;;;;18.67;11.02;;;4.10;99.90;;;;;;4881326;29;20209;-72
2023/01/26 13:19:00;;;;;;;16.92;10.80;;;4.10;99.90;;;;;;4880498;29;20297;-72
2023/01/26 13:21:38;;;;;;;16.17;9.50;;;4.10;99.90;;;;;;4880059;29;20174;-74
2023/01/26 13:24:16;;;;;;;20.83;10.68;;;4.10;99.90;;;;;;4880117;29;20178;-74
2023/01/26 13:26:58;;;;;;;18.50;10.52;;;4.10;99.90;;;;;;4879825;29;20281;-74
2023/01/26 13:29:24;;;;;;;16.10;9.32;;;4.10;99.90;;;;;;4879912;29;20243;-73
2023/01/26 13:31:57;;;;;;;15.37;9.57;;;4.10;99.90;;;;;;4864852;29;20182;-74
2023/01/26 13:34:45;;;;;;;14.75;9.82;;;4.10;99.90;;;;;;4879019;29;21012;-72
2023/01/26 13:37:23;;;;;;;15.13;9.45;;;4.10;99.90;;;;;;4879691;29;20183;-73
2023/01/26 13:39:57;;;;;;;17.00;9.70;;;4.10;99.90;;;;;;4879110;29;20265;-73
2023/01/26 13:42:35;;;;;;;17.38;10.80;;;4.10;99.90;;;;;;4880095;29;20171;-72
2023/01/26 13:45:24;;;;;;;17.80;10.38;;;4.10;99.90;;;;;;4879519;29;20216;-73
2023/01/26 13:47:55;;;;;;;17.55;10.30;;;4.10;99.90;;;;;;4864422;29;20194;-72
2023/01/26 13:50:24;;;;;;;14.55;9.73;;;4.10;99.90;;;;;;4879657;29;20239;-72
2023/01/26 13:52:52;;;;;;;14.73;9.65;;;4.10;99.90;;;;;;4879388;29;20206;-72
2023/01/26 13:55:28;;;;;;;15.00;9.00;;;4.10;99.90;;;;;;4879226;29;20696;-72
2023/01/26 13:58:11;;;;;;;13.85;8.48;;;4.10;99.90;;;;;;4878616;29;20555;-73
2023/01/26 14:00:40;;;;;;;13.70;8.32;;;4.10;99.90;;;;;;4880376;29;20167;-73
2023/01/26 14:03:21;;;;;;;15.23;9.35;;;4.10;99.90;;;;;;4880316;29;20274;-73
2023/01/26 14:06:04;;;;;;;14.60;8.40;;;4.20;99.90;;;;;;4879023;29;20206;-73
2023/01/26 14:08:34;;;;;;;13.50;8.85;;;4.20;99.90;;;;;;4874042;29;20265;-73
2023/01/26 14:11:03;;;;;;;14.25;9.18;;;4.20;99.90;;;;;;4863529;29;20294;-73
2023/01/26 14:13:34;;;;;;;15.18;9.13;;;4.20;99.90;;;;;;4880360;29;20265;-73